sensor_id;sensor_type;location;lat;lon;timestamp;P1;durP1;ratioP1;P2;durP2;ratioP2
81365;SDS011;70822;51.990;22.766;2023-07-09T00:06:38;8.73;;;5.80;;
81365;SDS011;70822;51.990;22.766;2023-07-09T00:21:44;9.27;;;5.20;;
81365;SDS011;70822;51.990;22.766;2023-07-09T00:36:50;9.17;;;5.90;;
81365;SDS011;70822;51.990;22.766;2023-07-09T00:51:55;9.40;;;5.33;;
81365;SDS011;70822;51.990;22.766;2023-07-09T01:07:05;9.03;;;4.77;;
81365;SDS011;70822;51.990;22.766;2023-07-09T01:22:11;8.67;;;5.63;;
81365;SDS011;70822;51.990;22.766;2023-07-09T01:37:17;9.00;;;5.43;;
81365;SDS011;70822;51.990;22.766;2023-07-09T01:52:28;7.47;;;5.50;;
81365;SDS011;70822;51.990;22.766;2023-07-09T02:07:36;9.13;;;5.50;;
81365;SDS011;70822;51.990;22.766;2023-07-09T02:22:41;7.13;;;5.27;;
81365;SDS011;70822;51.990;22.766;2023-07-09T02:37:47;7.50;;;5.40;;
81365;SDS011;70822;51.990;22.766;2023-07-09T02:52:51;13.73;;;6.23;;
81365;SDS011;70822;51.990;22.766;2023-07-09T03:07:56;8.67;;;6.87;;
81365;SDS011;70822;51.990;22.766;2023-07-09T03:23:01;13.87;;;7.97;;
81365;SDS011;70822;51.990;22.766;2023-07-09T03:38:06;10.80;;;6.77;;
81365;SDS011;70822;51.990;22.766;2023-07-09T04:08:17;6.80;;;4.80;;
81365;SDS011;70822;51.990;22.766;2023-07-09T04:23:22;7.93;;;4.83;;
81365;SDS011;70822;51.990;22.766;2023-07-09T04:38:27;5.27;;;4.57;;
81365;SDS011;70822;51.990;22.766;2023-07-09T04:53:32;6.57;;;4.30;;
81365;SDS011;70822;51.990;22.766;2023-07-09T05:08:36;6.10;;;4.10;;
81365;SDS011;70822;51.990;22.766;2023-07-09T05:23:41;4.43;;;3.70;;
81365;SDS011;70822;51.990;22.766;2023-07-09T05:38:46;4.93;;;4.17;;
81365;SDS011;70822;51.990;22.766;2023-07-09T05:53:51;3.83;;;3.10;;
81365;SDS011;70822;51.990;22.766;2023-07-09T06:08:55;5.53;;;3.10;;
81365;SDS011;70822;51.990;22.766;2023-07-09T06:24:00;3.10;;;2.80;;
81365;SDS011;70822;51.990;22.766;2023-07-09T06:39:05;3.50;;;3.00;;
81365;SDS011;70822;51.990;22.766;2023-07-09T06:54:16;2.87;;;2.60;;
81365;SDS011;70822;51.990;22.766;2023-07-09T07:09:21;4.47;;;2.70;;
81365;SDS011;70822;51.990;22.766;2023-07-09T07:24:27;4.97;;;3.00;;
81365;SDS011;70822;51.990;22.766;2023-07-09T07:39:31;4.37;;;2.70;;
81365;SDS011;70822;51.990;22.766;2023-07-09T07:54:36;3.67;;;2.27;;
81365;SDS011;70822;51.990;22.766;2023-07-09T08:09:41;3.60;;;2.40;;
81365;SDS011;70822;51.990;22.766;2023-07-09T08:24:46;3.43;;;2.10;;
81365;SDS011;70822;51.990;22.766;2023-07-09T08:39:50;2.30;;;2.03;;
81365;SDS011;70822;51.990;22.766;2023-07-09T08:54:55;3.40;;;2.10;;
81365;SDS011;70822;51.990;22.766;2023-07-09T09:10:03;1.90;;;1.70;;
81365;SDS011;70822;51.990;22.766;2023-07-09T09:25:16;3.30;;;1.97;;
81365;SDS011;70822;51.990;22.766;2023-07-09T09:40:32;2.20;;;1.33;;
81365;SDS011;70822;51.990;22.766;2023-07-09T09:55:40;4.23;;;2.03;;
81365;SDS011;70822;51.990;22.766;2023-07-09T10:10:44;20.13;;;11.33;;
81365;SDS011;70822;51.990;22.766;2023-07-09T10:25:52;4.33;;;1.83;;
81365;SDS011;70822;51.990;22.766;2023-07-09T10:41:02;1.87;;;1.20;;
81365;SDS011;70822;51.990;22.766;2023-07-09T10:56:20;2.43;;;1.07;;
81365;SDS011;70822;51.990;22.766;2023-07-09T11:11:30;2.03;;;1.20;;
81365;SDS011;70822;51.990;22.766;2023-07-09T11:26:46;1.20;;;0.90;;
81365;SDS011;70822;51.990;22.766;2023-07-09T11:41:53;1.27;;;0.80;;
81365;SDS011;70822;51.990;22.766;2023-07-09T11:56:58;1.20;;;0.83;;
81365;SDS011;70822;51.990;22.766;2023-07-09T12:12:17;1.33;;;0.80;;
81365;SDS011;70822;51.990;22.766;2023-07-09T12:27:24;3.03;;;1.13;;
81365;SDS011;70822;51.990;22.766;2023-07-09T12:42:31;1.57;;;1.07;;
81365;SDS011;70822;51.990;22.766;2023-07-09T12:57:38;1.63;;;1.27;;
81365;SDS011;70822;51.990;22.766;2023-07-09T13:12:44;1.80;;;1.30;;
81365;SDS011;70822;51.990;22.766;2023-07-09T13:27:50;1.57;;;1.13;;
81365;SDS011;70822;51.990;22.766;2023-07-09T13:42:56;2.60;;;1.20;;
81365;SDS011;70822;51.990;22.766;2023-07-09T13:58:01;1.57;;;1.43;;
81365;SDS011;70822;51.990;22.766;2023-07-09T14:13:07;1.77;;;1.27;;
81365;SDS011;70822;51.990;22.766;2023-07-09T14:28:17;2.33;;;1.50;;
81365;SDS011;70822;51.990;22.766;2023-07-09T14:43:23;2.03;;;1.63;;
81365;SDS011;70822;51.990;22.766;2023-07-09T14:58:28;2.10;;;1.70;;
81365;SDS011;70822;51.990;22.766;2023-07-09T15:13:34;2.50;;;1.60;;
81365;SDS011;70822;51.990;22.766;2023-07-09T15:28:39;4.53;;;1.50;;
81365;SDS011;70822;51.990;22.766;2023-07-09T15:43:44;3.17;;;2.00;;
81365;SDS011;70822;51.990;22.766;2023-07-09T15:58:49;3.20;;;1.67;;
81365;SDS011;70822;51.990;22.766;2023-07-09T16:13:57;3.73;;;1.77;;
81365;SDS011;70822;51.990;22.766;2023-07-09T16:29:08;2.67;;;1.47;;
81365;SDS011;70822;51.990;22.766;2023-07-09T16:44:34;1.70;;;1.10;;
81365;SDS011;70822;51.990;22.766;2023-07-09T16:59:39;10.70;;;4.53;;
81365;SDS011;70822;51.990;22.766;2023-07-09T17:14:45;1.73;;;1.20;;
81365;SDS011;70822;51.990;22.766;2023-07-09T17:29:50;4.57;;;2.47;;
81365;SDS011;70822;51.990;22.766;2023-07-09T17:44:55;2.73;;;1.97;;
81365;SDS011;70822;51.990;22.766;2023-07-09T18:00:01;5.17;;;2.90;;
81365;SDS011;70822;51.990;22.766;2023-07-09T18:15:13;4.10;;;2.57;;
81365;SDS011;70822;51.990;22.766;2023-07-09T18:30:23;2.77;;;1.27;;
81365;SDS011;70822;51.990;22.766;2023-07-09T18:45:31;3.67;;;1.20;;
81365;SDS011;70822;51.990;22.766;2023-07-09T19:00:36;15.50;;;2.27;;
81365;SDS011;70822;51.990;22.766;2023-07-09T19:15:41;4.60;;;1.73;;
81365;SDS011;70822;51.990;22.766;2023-07-09T19:30:49;6.40;;;2.27;;
81365;SDS011;70822;51.990;22.766;2023-07-09T19:45:56;2.87;;;1.30;;
81365;SDS011;70822;51.990;22.766;2023-07-09T20:01:00;4.17;;;1.23;;
81365;SDS011;70822;51.990;22.766;2023-07-09T20:16:06;5.70;;;1.43;;
81365;SDS011;70822;51.990;22.766;2023-07-09T20:31:23;4.07;;;1.50;;
81365;SDS011;70822;51.990;22.766;2023-07-09T20:46:31;3.27;;;1.30;;
81365;SDS011;70822;51.990;22.766;2023-07-09T21:01:36;2.03;;;1.57;;
81365;SDS011;70822;51.990;22.766;2023-07-09T21:16:41;3.50;;;1.90;;
81365;SDS011;70822;51.990;22.766;2023-07-09T21:31:48;32.43;;;11.27;;
81365;SDS011;70822;51.990;22.766;2023-07-09T21:46:54;24.27;;;7.37;;
81365;SDS011;70822;51.990;22.766;2023-07-09T22:02:02;26.90;;;9.73;;
81365;SDS011;70822;51.990;22.766;2023-07-09T22:17:11;11.67;;;4.13;;
81365;SDS011;70822;51.990;22.766;2023-07-09T22:32:21;3.60;;;2.00;;
81365;SDS011;70822;51.990;22.766;2023-07-09T22:47:30;3.40;;;2.00;;
81365;SDS011;70822;51.990;22.766;2023-07-09T23:02:35;2.67;;;1.80;;
81365;SDS011;70822;51.990;22.766;2023-07-09T23:17:42;3.27;;;1.80;;
81365;SDS011;70822;51.990;22.766;2023-07-09T23:32:47;5.10;;;2.20;;
81365;SDS011;70822;51.990;22.766;2023-07-09T23:47:52;3.43;;;2.17;;
